Time,TemperatureF,DewpointF,PressureIn,WindDirection,WindDirectionDegrees,WindSpeedMPH,WindSpeedGustMPH,Humidity,HourlyPrecipIn,Conditions,Clouds,dailyrainin,SoftwareType,DateUTC
2013-06-14 00:04:00,62.4,58.2,29.94,ESE,106,0.0,0.0,86,0.00,,,0.00,Wunderground v.1.15,2013-06-14 05:04:00,
2013-06-14 00:09:00,62.0,57.1,29.94,ESE,105,0.0,0.0,84,0.00,,,0.00,Wunderground v.1.15,2013-06-14 05:09:00,
2013-06-14 00:14:00,61.7,56.8,29.93,ESE,106,0.0,0.0,84,0.00,,,0.00,Wunderground v.1.15,2013-06-14 05:14:00,
2013-06-14 00:19:00,61.6,57.0,29.94,ESE,105,0.0,0.0,85,0.00,,,0.00,Wunderground v.1.15,2013-06-14 05:19:00,
2013-06-14 00:25:00,61.5,56.9,29.94,ESE,106,0.0,0.0,85,0.00,,,0.00,Wunderground v.1.15,2013-06-14 05:25:00,
2013-06-14 00:30:00,61.6,57.0,29.94,ESE,106,0.0,0.0,85,0.00,,,0.00,Wunderground v.1.15,2013-06-14 05:30:00,
2013-06-14 00:36:00,61.7,56.8,29.94,ESE,105,0.0,0.0,84,0.00,,,0.00,Wunderground v.1.15,2013-06-14 05:36:00,
2013-06-14 00:41:00,61.8,56.9,29.94,ESE,106,0.0,0.0,84,0.00,,,0.00,Wunderground v.1.15,2013-06-14 05:41:00,
2013-06-14 00:46:00,62.0,57.4,29.94,ESE,106,0.0,0.0,85,0.00,,,0.00,Wunderground v.1.15,2013-06-14 05:46:00,
2013-06-14 00:51:00,62.0,56.8,29.94,ESE,106,0.0,0.0,83,0.00,,,0.00,Wunderground v.1.15,2013-06-14 05:51:00,
2013-06-14 00:57:00,62.3,56.4,29.94,ENE,65,0.0,3.0,81,0.00,,,0.00,Wunderground v.1.15,2013-06-14 05:57:00,
2013-06-14 01:03:00,64.2,56.8,29.95,ESE,108,1.0,3.0,77,0.00,,,0.00,Wunderground v.1.15,2013-06-14 06:03:00,
2013-06-14 01:08:00,64.9,56.8,29.95,SE,130,1.0,3.0,75,0.00,,,0.00,Wunderground v.1.15,2013-06-14 06:08:00,
2013-06-14 01:13:00,65.4,57.6,29.95,ESE,105,1.0,2.0,76,0.00,,,0.00,Wunderground v.1.15,2013-06-14 06:13:00,
2013-06-14 01:18:00,65.6,57.5,29.96,SSE,167,1.0,3.0,75,0.00,,,0.00,Wunderground v.1.15,2013-06-14 06:18:00,
2013-06-14 01:23:00,65.6,57.5,29.96,ESE,106,1.0,1.0,75,0.00,,,0.00,Wunderground v.1.15,2013-06-14 06:23:00,
2013-06-14 01:28:00,65.6,57.8,29.96,ENE,64,1.0,3.0,76,0.00,,,0.00,Wunderground v.1.15,2013-06-14 06:28:00,
2013-06-14 01:34:00,65.5,57.7,29.96,East,81,1.0,2.0,76,0.00,,,0.00,Wunderground v.1.15,2013-06-14 06:34:00,
2013-06-14 01:39:00,65.2,57.8,29.96,ESE,122,0.0,2.0,77,0.00,,,0.00,Wunderground v.1.15,2013-06-14 06:39:00,
2013-06-14 01:44:00,65.0,57.6,29.96,East,81,0.0,1.0,77,0.00,,,0.00,Wunderground v.1.15,2013-06-14 06:44:00,
2013-06-14 01:49:00,64.8,58.5,29.97,ENE,75,0.0,1.0,80,0.00,,,0.00,Wunderground v.1.15,2013-06-14 06:49:00,
2013-06-14 01:54:00,64.3,57.6,29.97,ENE,75,0.0,0.0,79,0.00,,,0.00,Wunderground v.1.15,2013-06-14 06:54:00,
2013-06-14 01:59:00,63.8,57.5,29.97,ENE,75,0.0,0.0,80,0.00,,,0.00,Wunderground v.1.15,2013-06-14 06:59:00,
2013-06-14 02:05:00,63.3,57.4,29.97,ENE,75,0.0,0.0,81,0.00,,,0.00,Wunderground v.1.15,2013-06-14 07:05:00,
2013-06-14 02:10:00,62.9,57.7,29.97,ENE,75,0.0,0.0,83,0.00,,,0.00,Wunderground v.1.15,2013-06-14 07:10:00,
2013-06-14 02:16:00,62.6,57.4,29.97,ENE,75,0.0,0.0,83,0.00,,,0.00,Wunderground v.1.15,2013-06-14 07:16:00,
2013-06-14 02:21:00,62.3,57.1,29.97,ENE,75,0.0,0.0,83,0.00,,,0.00,Wunderground v.1.15,2013-06-14 07:21:00,
2013-06-14 02:26:00,62.0,57.1,29.98,ENE,75,0.0,0.0,84,0.00,,,0.00,Wunderground v.1.15,2013-06-14 07:26:00,
2013-06-14 02:31:00,61.8,57.6,29.98,ENE,75,0.0,0.0,86,0.00,,,0.00,Wunderground v.1.15,2013-06-14 07:31:00,
2013-06-14 02:37:00,61.6,57.4,29.98,ENE,75,0.0,0.0,86,0.00,,,0.00,Wunderground v.1.15,2013-06-14 07:37:00,
2013-06-14 02:42:00,61.4,57.2,29.98,ENE,75,0.0,0.0,86,0.00,,,0.00,Wunderground v.1.15,2013-06-14 07:42:00,
2013-06-14 02:47:00,61.2,57.3,29.98,ENE,75,0.0,0.0,87,0.00,,,0.00,Wunderground v.1.15,2013-06-14 07:47:00,
2013-06-14 02:52:00,61.0,57.4,29.98,ENE,75,0.0,0.0,88,0.00,,,0.00,Wunderground v.1.15,2013-06-14 07:52:00,
2013-06-14 02:58:00,60.7,57.4,29.99,ENE,75,0.0,0.0,89,0.00,,,0.00,Wunderground v.1.15,2013-06-14 07:58:00,
2013-06-14 03:03:00,60.6,57.7,29.99,ENE,75,0.0,0.0,90,0.00,,,0.00,Wunderground v.1.15,2013-06-14 08:03:00,
2013-06-14 03:08:00,60.5,57.6,30.00,ENE,75,0.0,0.0,90,0.00,,,0.00,Wunderground v.1.15,2013-06-14 08:08:00,
2013-06-14 03:14:00,60.2,57.3,30.00,ENE,75,0.0,0.0,90,0.00,,,0.00,Wunderground v.1.15,2013-06-14 08:14:00,
2013-06-14 03:19:00,59.8,57.2,30.00,ENE,75,0.0,0.0,91,0.00,,,0.00,Wunderground v.1.15,2013-06-14 08:19:00,
2013-06-14 03:24:00,59.5,56.9,30.00,ENE,75,0.0,0.0,91,0.00,,,0.00,Wunderground v.1.15,2013-06-14 08:24:00,
2013-06-14 03:30:00,59.2,56.9,30.00,ENE,75,0.0,0.0,92,0.00,,,0.00,Wunderground v.1.15,2013-06-14 08:30:00,
2013-06-14 03:35:00,59.1,56.8,30.00,NNW,341,0.0,0.0,92,0.00,,,0.00,Wunderground v.1.15,2013-06-14 08:35:00,
2013-06-14 03:40:00,59.1,56.8,30.00,NNW,341,0.0,0.0,92,0.00,,,0.00,Wunderground v.1.15,2013-06-14 08:40:00,
2013-06-14 03:45:00,59.1,57.1,30.00,NNW,341,0.0,0.0,93,0.00,,,0.00,Wunderground v.1.15,2013-06-14 08:45:00,
2013-06-14 03:50:00,58.9,56.9,30.00,NNW,341,0.0,0.0,93,0.00,,,0.00,Wunderground v.1.15,2013-06-14 08:50:00,
2013-06-14 03:56:00,58.7,56.7,30.00,NNW,342,0.0,0.0,93,0.00,,,0.00,Wunderground v.1.15,2013-06-14 08:56:00,
2013-06-14 04:02:00,58.3,56.0,30.00,NNW,342,0.0,0.0,92,0.00,,,0.00,Wunderground v.1.15,2013-06-14 09:02:00,
2013-06-14 04:07:00,58.2,56.2,30.00,NNW,341,0.0,0.0,93,0.00,,,0.00,Wunderground v.1.15,2013-06-14 09:07:00,
2013-06-14 04:12:00,58.0,56.0,29.99,NNW,341,0.0,0.0,93,0.00,,,0.00,Wunderground v.1.15,2013-06-14 09:12:00,
2013-06-14 04:17:00,58.1,56.4,29.99,NNW,341,0.0,0.0,94,0.00,,,0.00,Wunderground v.1.15,2013-06-14 09:17:00,
2013-06-14 04:22:00,58.2,56.5,29.99,NNW,343,0.0,0.0,94,0.00,,,0.00,Wunderground v.1.15,2013-06-14 09:22:00,
2013-06-14 04:28:00,58.2,56.5,29.99,NNW,343,0.0,0.0,94,0.00,,,0.00,Wunderground v.1.15,2013-06-14 09:28:00,
2013-06-14 04:33:00,58.2,56.5,29.99,NNW,343,0.0,0.0,94,0.00,,,0.00,Wunderground v.1.15,2013-06-14 09:33:00,
2013-06-14 04:38:00,58.1,56.4,30.00,NNW,342,0.0,0.0,94,0.00,,,0.00,Wunderground v.1.15,2013-06-14 09:38:00,
2013-06-14 04:43:00,58.1,56.4,30.00,NNW,342,0.0,0.0,94,0.00,,,0.00,Wunderground v.1.15,2013-06-14 09:43:00,
2013-06-14 04:48:00,58.1,56.7,30.00,NNW,343,0.0,0.0,95,0.00,,,0.00,Wunderground v.1.15,2013-06-14 09:48:00,
2013-06-14 04:53:00,58.0,56.3,30.00,NNW,342,0.0,0.0,94,0.00,,,0.00,Wunderground v.1.15,2013-06-14 09:53:00,
2013-06-14 04:58:00,57.8,56.1,30.00,NNW,342,0.0,0.0,94,0.00,,,0.00,Wunderground v.1.15,2013-06-14 09:58:00,
2013-06-14 05:04:00,57.6,56.2,30.00,NNW,343,0.0,0.0,95,0.00,,,0.00,Wunderground v.1.15,2013-06-14 10:04:00,
2013-06-14 05:09:00,57.6,56.2,30.00,NNW,343,0.0,0.0,95,0.00,,,0.00,Wunderground v.1.15,2013-06-14 10:09:00,
2013-06-14 05:15:00,57.3,55.9,30.00,NNW,342,0.0,0.0,95,0.00,,,0.00,Wunderground v.1.15,2013-06-14 10:15:00,
2013-06-14 05:20:00,57.2,55.8,30.00,NNW,342,0.0,0.0,95,0.00,,,0.00,Wunderground v.1.15,2013-06-14 10:20:00,
2013-06-14 05:25:00,57.3,56.2,30.00,NNW,343,0.0,0.0,96,0.00,,,0.00,Wunderground v.1.15,2013-06-14 10:25:00,
2013-06-14 05:30:00,57.5,56.4,30.01,NNW,336,0.0,0.0,96,0.00,,,0.00,Wunderground v.1.15,2013-06-14 10:30:00,
2013-06-14 05:35:00,57.4,56.0,30.01,WNW,302,0.0,0.0,95,0.00,,,0.00,Wunderground v.1.15,2013-06-14 10:35:00,
2013-06-14 05:41:00,57.5,56.1,30.01,WNW,287,0.0,0.0,95,0.00,,,0.00,Wunderground v.1.15,2013-06-14 10:41:00,
2013-06-14 05:46:00,57.7,56.6,30.02,West,273,0.0,0.0,96,0.00,,,0.00,Wunderground v.1.15,2013-06-14 10:46:00,
2013-06-14 05:51:00,58.1,56.7,30.02,West,264,0.0,0.0,95,0.00,,,0.00,Wunderground v.1.15,2013-06-14 10:51:00,
2013-06-14 05:56:00,58.6,57.2,30.02,West,263,0.0,1.0,95,0.00,,,0.00,Wunderground v.1.15,2013-06-14 10:56:00,
2013-06-14 06:02:00,59.3,57.6,30.03,West,264,0.0,0.0,94,0.00,,,0.00,Wunderground v.1.15,2013-06-14 11:02:00,
2013-06-14 06:07:00,59.9,57.9,30.02,West,264,0.0,0.0,93,0.00,,,0.00,Wunderground v.1.15,2013-06-14 11:07:00,
2013-06-14 06:12:00,60.4,58.4,30.03,West,264,0.0,0.0,93,0.00,,,0.00,Wunderground v.1.15,2013-06-14 11:12:00,
2013-06-14 06:17:00,61.0,58.7,30.02,West,264,0.0,0.0,92,0.00,,,0.00,Wunderground v.1.15,2013-06-14 11:17:00,
2013-06-14 06:22:00,61.6,59.3,30.02,West,264,0.0,0.0,92,0.00,,,0.00,Wunderground v.1.15,2013-06-14 11:22:00,
2013-06-14 06:28:00,62.1,59.4,30.03,West,271,0.0,0.0,91,0.00,,,0.00,Wunderground v.1.15,2013-06-14 11:28:00,
2013-06-14 06:33:00,62.5,59.2,30.02,NW,320,0.0,0.0,89,0.00,,,0.00,Wunderground v.1.15,2013-06-14 11:33:00,
2013-06-14 06:38:00,63.0,59.4,30.03,North,359,0.0,1.0,88,0.00,,,0.00,Wunderground v.1.15,2013-06-14 11:38:00,
2013-06-14 06:44:00,63.3,59.4,30.03,NNW,339,1.0,3.0,87,0.00,,,0.00,Wunderground v.1.15,2013-06-14 11:44:00,
2013-06-14 06:49:00,63.5,59.2,30.03,NNE,17,2.0,4.0,86,0.00,,,0.00,Wunderground v.1.15,2013-06-14 11:49:00,
2013-06-14 06:54:00,63.7,59.4,30.03,NW,323,3.0,4.0,86,0.00,,,0.00,Wunderground v.1.15,2013-06-14 11:54:00,
2013-06-14 06:59:00,63.8,59.2,30.03,NNW,330,4.0,6.0,85,0.00,,,0.00,Wunderground v.1.15,2013-06-14 11:59:00,
2013-06-14 07:05:00,64.2,59.3,30.03,North,356,4.0,7.0,84,0.00,,,0.00,Wunderground v.1.15,2013-06-14 12:05:00,
2013-06-14 07:10:00,64.4,59.5,30.03,NW,321,4.0,4.0,84,0.00,,,0.00,Wunderground v.1.15,2013-06-14 12:10:00,
2013-06-14 07:15:00,64.4,59.1,30.03,NNW,327,4.0,5.0,83,0.00,,,0.00,Wunderground v.1.15,2013-06-14 12:15:00,
2013-06-14 07:20:00,64.7,59.4,30.03,NNW,340,4.0,6.0,83,0.00,,,0.00,Wunderground v.1.15,2013-06-14 12:20:00,
2013-06-14 07:26:00,65.0,59.7,30.03,NNW,331,4.0,6.0,83,0.00,,,0.00,Wunderground v.1.15,2013-06-14 12:26:00,
2013-06-14 07:31:00,65.1,59.5,30.03,NNW,331,5.0,5.0,82,0.00,,,0.00,Wunderground v.1.15,2013-06-14 12:31:00,
2013-06-14 07:36:00,65.2,59.2,30.04,NNW,345,5.0,5.0,81,0.00,,,0.00,Wunderground v.1.15,2013-06-14 12:36:00,
2013-06-14 08:38:00,68.0,58.6,30.06,NNW,345,5.0,5.0,72,0.00,,,0.00,Wunderground v.1.15,2013-06-14 13:38:00,
2013-06-14 08:43:00,68.3,59.3,30.06,NW,314,4.0,6.0,73,0.00,,,0.00,Wunderground v.1.15,2013-06-14 13:43:00,
2013-06-14 08:48:00,68.4,59.0,30.06,NW,309,4.0,9.0,72,0.00,,,0.00,Wunderground v.1.15,2013-06-14 13:48:00,
2013-06-14 08:53:00,68.6,58.0,30.06,North,351,5.0,9.0,69,0.00,,,0.00,Wunderground v.1.15,2013-06-14 13:53:00,
2013-06-14 08:58:00,68.9,58.7,30.06,NNW,330,5.0,7.0,70,0.00,,,0.00,Wunderground v.1.15,2013-06-14 13:58:00,
2013-06-14 09:04:00,69.2,59.4,30.06,NW,316,5.0,7.0,71,0.00,,,0.00,Wunderground v.1.15,2013-06-14 14:04:00,
2013-06-14 09:10:00,69.4,60.0,30.06,WNW,297,4.0,4.0,72,0.00,,,0.00,Wunderground v.1.15,2013-06-14 14:10:00,
2013-06-14 09:15:00,69.6,59.0,30.06,NW,319,4.0,8.0,69,0.00,,,0.00,Wunderground v.1.15,2013-06-14 14:15:00,
2013-06-14 09:20:00,70.2,59.6,30.06,NNE,23,4.0,4.0,69,0.00,,,0.00,Wunderground v.1.15,2013-06-14 14:20:00,
2013-06-14 09:25:00,70.1,59.0,30.06,NW,319,5.0,6.0,68,0.00,,,0.00,Wunderground v.1.15,2013-06-14 14:25:00,
2013-06-14 09:31:00,70.3,60.4,30.06,NW,316,5.0,5.0,71,0.00,,,0.00,Wunderground v.1.15,2013-06-14 14:31:00,
2013-06-14 09:36:00,70.6,59.5,30.06,NNW,333,4.0,6.0,68,0.00,,,0.00,Wunderground v.1.15,2013-06-14 14:36:00,
2013-06-14 09:41:00,70.8,60.5,30.06,NW,316,4.0,6.0,70,0.00,,,0.00,Wunderground v.1.15,2013-06-14 14:41:00,
2013-06-14 09:46:00,70.9,59.8,30.06,NW,314,5.0,8.0,68,0.00,,,0.00,Wunderground v.1.15,2013-06-14 14:46:00,
2013-06-14 09:51:00,71.2,60.9,30.06,NNW,348,5.0,6.0,70,0.00,,,0.00,Wunderground v.1.15,2013-06-14 14:51:00,
2013-06-14 09:57:00,71.8,59.8,30.07,NNW,340,4.0,6.0,66,0.00,,,0.00,Wunderground v.1.15,2013-06-14 14:57:00,
2013-06-14 10:03:00,71.8,59.4,30.07,NW,316,4.0,6.0,65,0.00,,,0.00,Wunderground v.1.15,2013-06-14 15:03:00,
2013-06-14 10:08:00,72.1,60.1,30.07,NNE,13,5.0,6.0,66,0.00,,,0.00,Wunderground v.1.15,2013-06-14 15:08:00,
2013-06-14 10:13:00,72.4,60.8,30.07,NE,36,4.0,5.0,67,0.00,,,0.00,Wunderground v.1.15,2013-06-14 15:13:00,
2013-06-14 10:18:00,72.7,60.3,30.07,North,11,5.0,9.0,65,0.00,,,0.00,Wunderground v.1.15,2013-06-14 15:18:00,
2013-06-14 10:23:00,72.6,58.8,30.07,NW,325,6.0,6.0,62,0.00,,,0.00,Wunderground v.1.15,2013-06-14 15:23:00,
2013-06-14 10:29:00,72.8,58.1,30.07,NNE,24,6.0,8.0,60,0.00,,,0.00,Wunderground v.1.15,2013-06-14 15:29:00,
2013-06-14 10:34:00,73.2,58.9,30.07,NNW,335,6.0,9.0,61,0.00,,,0.00,Wunderground v.1.15,2013-06-14 15:34:00,
2013-06-14 10:39:00,73.6,58.9,30.06,NE,43,6.0,9.0,60,0.00,,,0.00,Wunderground v.1.15,2013-06-14 15:39:00,
2013-06-14 10:45:00,73.7,58.5,30.06,NE,36,5.0,8.0,59,0.00,,,0.00,Wunderground v.1.15,2013-06-14 15:45:00,
2013-06-14 10:50:00,73.9,59.1,30.06,NNE,23,5.0,8.0,60,0.00,,,0.00,Wunderground v.1.15,2013-06-14 15:50:00,
2013-06-14 10:55:00,74.0,58.8,30.06,NE,36,6.0,8.0,59,0.00,,,0.00,Wunderground v.1.15,2013-06-14 15:55:00,
2013-06-14 11:00:00,74.5,59.2,30.06,NE,53,5.0,8.0,59,0.00,,,0.00,Wunderground v.1.15,2013-06-14 16:00:00,
2013-06-14 11:06:00,74.9,61.9,30.06,NNE,17,6.0,8.0,64,0.00,,,0.00,Wunderground v.1.15,2013-06-14 16:06:00,
2013-06-14 11:11:00,75.0,60.2,30.05,North,1,6.0,6.0,60,0.00,,,0.00,Wunderground v.1.15,2013-06-14 16:11:00,
2013-06-14 11:17:00,75.4,61.9,30.04,NNE,16,5.0,9.0,63,0.00,,,0.00,Wunderground v.1.15,2013-06-14 16:17:00,
2013-06-14 11:22:00,75.8,59.5,30.05,North,6,5.0,8.0,57,0.00,,,0.00,Wunderground v.1.15,2013-06-14 16:22:00,
2013-06-14 11:27:00,75.6,57.8,30.04,NNW,331,6.0,8.0,54,0.00,,,0.00,Wunderground v.1.15,2013-06-14 16:27:00,
2013-06-14 11:32:00,75.8,60.4,30.05,NNW,332,6.0,10.0,59,0.00,,,0.00,Wunderground v.1.15,2013-06-14 16:32:00,
2013-06-14 11:38:00,75.9,58.1,30.05,NW,320,6.0,10.0,54,0.00,,,0.00,Wunderground v.1.15,2013-06-14 16:38:00,
2013-06-14 11:43:00,76.0,58.7,30.05,NW,315,5.0,6.0,55,0.00,,,0.00,Wunderground v.1.15,2013-06-14 16:43:00,
2013-06-14 11:48:00,76.4,59.0,30.04,ENE,70,5.0,8.0,55,0.00,,,0.00,Wunderground v.1.15,2013-06-14 16:48:00,
2013-06-14 11:53:00,76.7,57.7,30.04,WNW,297,5.0,9.0,52,0.00,,,0.00,Wunderground v.1.15,2013-06-14 16:53:00,
2013-06-14 11:59:00,76.9,60.0,30.05,NE,41,5.0,9.0,56,0.00,,,0.00,Wunderground v.1.15,2013-06-14 16:59:00,
2013-06-14 12:05:00,76.9,59.5,30.04,NNW,345,6.0,9.0,55,0.00,,,0.00,Wunderground v.1.15,2013-06-14 17:05:00,
2013-06-14 12:10:00,76.6,59.2,30.04,NNW,341,6.0,6.0,55,0.00,,,0.00,Wunderground v.1.15,2013-06-14 17:10:00,
2013-06-14 12:15:00,76.7,60.3,30.04,NE,47,5.0,6.0,57,0.00,,,0.00,Wunderground v.1.15,2013-06-14 17:15:00,
2013-06-14 12:20:00,77.3,58.8,30.04,NNE,23,4.0,4.0,53,0.00,,,0.00,Wunderground v.1.15,2013-06-14 17:20:00,
2013-06-14 12:26:00,77.4,60.0,30.03,ENE,67,4.0,4.0,55,0.00,,,0.00,Wunderground v.1.15,2013-06-14 17:26:00,
2013-06-14 12:31:00,78.1,59.6,30.03,NNE,20,4.0,5.0,53,0.00,,,0.00,Wunderground v.1.15,2013-06-14 17:31:00,
2013-06-14 12:36:00,78.0,59.5,30.04,North,354,5.0,7.0,53,0.00,,,0.00,Wunderground v.1.15,2013-06-14 17:36:00,
2013-06-14 12:41:00,77.8,59.3,30.04,North,4,5.0,5.0,53,0.00,,,0.00,Wunderground v.1.15,2013-06-14 17:41:00,
2013-06-14 12:46:00,77.9,61.4,30.03,ENE,60,5.0,6.0,57,0.00,,,0.00,Wunderground v.1.15,2013-06-14 17:46:00,
2013-06-14 12:52:00,78.2,59.1,30.04,ENE,59,5.0,6.0,52,0.00,,,0.00,Wunderground v.1.15,2013-06-14 17:52:00,
2013-06-14 12:57:00,78.4,59.9,30.04,ENE,59,5.0,6.0,53,0.00,,,0.00,Wunderground v.1.15,2013-06-14 17:57:00,
2013-06-14 13:03:00,78.1,61.1,30.04,NNE,20,4.0,7.0,56,0.00,,,0.00,Wunderground v.1.15,2013-06-14 18:03:00,
2013-06-14 13:08:00,78.4,59.9,30.04,NNW,338,5.0,7.0,53,0.00,,,0.00,Wunderground v.1.15,2013-06-14 18:08:00,
2013-06-14 13:13:00,78.6,59.0,30.04,North,358,5.0,9.0,51,0.00,,,0.00,Wunderground v.1.15,2013-06-14 18:13:00,
2013-06-14 13:18:00,78.7,60.1,30.04,NE,46,6.0,9.0,53,0.00,,,0.00,Wunderground v.1.15,2013-06-14 18:18:00,
2013-06-14 13:24:00,79.0,58.2,30.04,North,352,5.0,8.0,49,0.00,,,0.00,Wunderground v.1.15,2013-06-14 18:24:00,
2013-06-14 13:29:00,78.8,58.6,30.04,NW,316,6.0,10.0,50,0.00,,,0.00,Wunderground v.1.15,2013-06-14 18:29:00,
2013-06-14 13:35:00,78.9,59.2,30.04,ENE,72,4.0,6.0,51,0.00,,,0.00,Wunderground v.1.15,2013-06-14 18:35:00,
2013-06-14 13:40:00,79.4,60.2,30.04,ENE,63,2.0,2.0,52,0.00,,,0.00,Wunderground v.1.15,2013-06-14 18:40:00,
2013-06-14 13:45:00,79.5,57.5,30.03,NW,304,3.0,8.0,47,0.00,,,0.00,Wunderground v.1.15,2013-06-14 18:45:00,
2013-06-14 13:50:00,79.2,59.0,30.03,North,352,5.0,9.0,50,0.00,,,0.00,Wunderground v.1.15,2013-06-14 18:50:00,
2013-06-14 13:55:00,79.4,58.6,30.03,North,1,4.0,9.0,49,0.00,,,0.00,Wunderground v.1.15,2013-06-14 18:55:00,
2013-06-14 14:00:00,79.5,60.9,30.03,NW,318,3.0,4.0,53,0.00,,,0.00,Wunderground v.1.15,2013-06-14 19:00:00,
2013-06-14 14:06:00,79.7,57.1,30.03,NNE,22,4.0,7.0,46,0.00,,,0.00,Wunderground v.1.15,2013-06-14 19:06:00,
2013-06-14 14:12:00,80.0,59.1,30.03,NE,41,5.0,7.0,49,0.00,,,0.00,Wunderground v.1.15,2013-06-14 19:12:00,
2013-06-14 14:17:00,80.0,58.0,30.02,NNW,345,4.0,7.0,47,0.00,,,0.00,Wunderground v.1.15,2013-06-14 19:17:00,
2013-06-14 14:22:00,80.2,59.9,30.02,NNE,26,3.0,12.0,50,0.00,,,0.00,Wunderground v.1.15,2013-06-14 19:22:00,
2013-06-14 14:27:00,80.4,59.5,30.02,NE,49,4.0,12.0,49,0.00,,,0.00,Wunderground v.1.15,2013-06-14 19:27:00,
2013-06-14 14:33:00,80.4,59.5,30.02,NNE,26,7.0,9.0,49,0.00,,,0.00,Wunderground v.1.15,2013-06-14 19:33:00,
2013-06-14 14:38:00,80.2,57.5,30.02,North,9,6.0,9.0,46,0.00,,,0.00,Wunderground v.1.15,2013-06-14 19:38:00,
2013-06-14 14:43:00,80.6,59.1,30.02,NNE,26,5.0,6.0,48,0.00,,,0.00,Wunderground v.1.15,2013-06-14 19:43:00,
2013-06-14 14:48:00,80.8,59.9,30.02,NW,316,5.0,8.0,49,0.00,,,0.00,Wunderground v.1.15,2013-06-14 19:48:00,
2013-06-14 14:54:00,80.7,58.6,30.03,NNW,330,6.0,9.0,47,0.00,,,0.00,Wunderground v.1.15,2013-06-14 19:54:00,
2013-06-14 14:59:00,80.7,59.8,30.03,NNW,329,6.0,11.0,49,0.00,,,0.00,Wunderground v.1.15,2013-06-14 19:59:00,
2013-06-14 15:05:00,80.6,59.7,30.03,NE,43,5.0,7.0,49,0.00,,,0.00,Wunderground v.1.15,2013-06-14 20:05:00,
2013-06-14 15:10:00,80.8,59.9,30.03,North,349,5.0,7.0,49,0.00,,,0.00,Wunderground v.1.15,2013-06-14 20:10:00,
2013-06-14 15:16:00,80.7,59.8,30.03,WNW,302,6.0,7.0,49,0.00,,,0.00,Wunderground v.1.15,2013-06-14 20:16:00,
2013-06-14 15:21:00,81.3,60.3,30.04,North,9,6.0,8.0,49,0.00,,,0.00,Wunderground v.1.15,2013-06-14 20:21:00,
2013-06-14 15:26:00,81.5,58.1,30.03,NW,320,4.0,8.0,45,0.00,,,0.00,Wunderground v.1.15,2013-06-14 20:26:00,
2013-06-14 15:31:00,81.5,60.5,30.03,NW,320,5.0,10.0,49,0.00,,,0.00,Wunderground v.1.15,2013-06-14 20:31:00,
2013-06-14 15:37:00,81.4,58.0,30.04,North,354,6.0,11.0,45,0.00,,,0.00,Wunderground v.1.15,2013-06-14 20:37:00,
2013-06-14 15:42:00,81.4,59.8,30.04,NNW,333,6.0,9.0,48,0.00,,,0.00,Wunderground v.1.15,2013-06-14 20:42:00,
2013-06-14 15:47:00,81.5,59.3,30.04,North,356,6.0,9.0,47,0.00,,,0.00,Wunderground v.1.15,2013-06-14 20:47:00,
2013-06-14 15:53:00,81.5,58.7,30.03,North,352,6.0,8.0,46,0.00,,,0.00,Wunderground v.1.15,2013-06-14 20:53:00,
2013-06-14 15:58:00,81.6,57.6,30.03,NW,319,5.0,8.0,44,0.00,,,0.00,Wunderground v.1.15,2013-06-14 20:58:00,
2013-06-14 16:04:00,81.3,59.1,30.03,NW,307,5.0,10.0,47,0.00,,,0.00,Wunderground v.1.15,2013-06-14 21:04:00,
2013-06-14 16:09:00,81.2,59.6,30.03,NNE,30,7.0,11.0,48,0.00,,,0.00,Wunderground v.1.15,2013-06-14 21:09:00,
2013-06-14 16:14:00,80.9,58.8,30.03,NNE,32,7.0,8.0,47,0.00,,,0.00,Wunderground v.1.15,2013-06-14 21:14:00,
2013-06-14 16:19:00,81.1,60.1,30.03,NE,50,6.0,8.0,49,0.00,,,0.00,Wunderground v.1.15,2013-06-14 21:19:00,
2013-06-14 16:24:00,81.2,60.2,30.02,NW,325,5.0,6.0,49,0.00,,,0.00,Wunderground v.1.15,2013-06-14 21:24:00,
2013-06-14 16:29:00,81.5,59.3,30.02,NW,322,4.0,8.0,47,0.00,,,0.00,Wunderground v.1.15,2013-06-14 21:29:00,
2013-06-14 16:35:00,81.4,59.8,30.02,NW,326,5.0,8.0,48,0.00,,,0.00,Wunderground v.1.15,2013-06-14 21:35:00,
2013-06-14 16:40:00,81.0,59.5,30.02,NNW,333,5.0,6.0,48,0.00,,,0.00,Wunderground v.1.15,2013-06-14 21:40:00,
2013-06-14 16:45:00,80.6,60.2,30.01,NNW,333,5.0,6.0,50,0.00,,,0.00,Wunderground v.1.15,2013-06-14 21:45:00,
2013-06-14 16:50:00,80.4,60.6,30.01,NNE,22,4.0,4.0,51,0.00,,,0.00,Wunderground v.1.15,2013-06-14 21:50:00,
2013-06-14 16:56:00,80.5,61.8,30.01,ENE,57,3.0,6.0,53,0.00,,,0.00,Wunderground v.1.15,2013-06-14 21:56:00,
2013-06-14 17:02:00,80.5,59.0,30.01,NNW,347,2.0,3.0,48,0.00,,,0.00,Wunderground v.1.15,2013-06-14 22:02:00,
2013-06-14 17:07:00,80.4,59.5,30.00,NW,314,2.0,5.0,49,0.00,,,0.00,Wunderground v.1.15,2013-06-14 22:07:00,
2013-06-14 17:13:00,80.3,60.0,30.00,NNW,348,2.0,2.0,50,0.00,,,0.00,Wunderground v.1.15,2013-06-14 22:13:00,
2013-06-14 17:18:00,80.8,61.0,30.00,ENE,66,1.0,2.0,51,0.00,,,0.00,Wunderground v.1.15,2013-06-14 22:18:00,
2013-06-14 17:23:00,81.0,58.9,30.00,NE,37,2.0,5.0,47,0.00,,,0.00,Wunderground v.1.15,2013-06-14 22:23:00,
2013-06-14 17:28:00,81.0,58.9,30.00,NNW,335,3.0,5.0,47,0.00,,,0.00,Wunderground v.1.15,2013-06-14 22:28:00,
2013-06-14 17:33:00,81.2,59.6,30.00,NE,41,2.0,3.0,48,0.00,,,0.00,Wunderground v.1.15,2013-06-14 22:33:00,
2013-06-14 17:39:00,81.1,60.7,30.00,NE,53,2.0,6.0,50,0.00,,,0.00,Wunderground v.1.15,2013-06-14 22:39:00,
2013-06-14 17:44:00,80.7,59.8,30.00,NNE,19,4.0,5.0,49,0.00,,,0.00,Wunderground v.1.15,2013-06-14 22:44:00,
2013-06-14 17:49:00,80.6,59.1,30.00,NE,53,4.0,5.0,48,0.00,,,0.00,Wunderground v.1.15,2013-06-14 22:49:00,
2013-06-14 17:55:00,80.4,59.5,30.00,North,358,4.0,6.0,49,0.00,,,0.00,Wunderground v.1.15,2013-06-14 22:55:00,
2013-06-14 18:00:00,80.9,61.1,30.00,NNW,335,2.0,6.0,51,0.00,,,0.00,Wunderground v.1.15,2013-06-14 23:00:00,
2013-06-14 18:06:00,81.0,58.9,29.99,NNW,337,3.0,6.0,47,0.00,,,0.00,Wunderground v.1.15,2013-06-14 23:06:00,
2013-06-14 18:11:00,81.5,60.5,29.99,NE,40,3.0,3.0,49,0.00,,,0.00,Wunderground v.1.15,2013-06-14 23:11:00,
2013-06-14 18:16:00,81.6,58.8,29.99,NNW,331,1.0,3.0,46,0.00,,,0.00,Wunderground v.1.15,2013-06-14 23:16:00,
2013-06-14 18:21:00,81.6,60.0,29.98,ENE,59,2.0,3.0,48,0.00,,,0.00,Wunderground v.1.15,2013-06-14 23:21:00,
2013-06-14 18:26:00,81.7,59.5,29.98,ENE,58,2.0,4.0,47,0.00,,,0.00,Wunderground v.1.15,2013-06-14 23:26:00,
2013-06-14 18:32:00,81.5,58.7,29.97,ENE,75,2.0,4.0,46,0.00,,,0.00,Wunderground v.1.15,2013-06-14 23:32:00,
2013-06-14 18:37:00,81.2,61.9,29.97,NE,47,1.0,4.0,52,0.00,,,0.00,Wunderground v.1.15,2013-06-14 23:37:00,
2013-06-14 18:42:00,80.8,60.4,29.97,East,84,2.0,4.0,50,0.00,,,0.00,Wunderground v.1.15,2013-06-14 23:42:00,
2013-06-14 18:47:00,80.7,61.4,29.97,ESE,103,1.0,4.0,52,0.00,,,0.00,Wunderground v.1.15,2013-06-14 23:47:00,
2013-06-14 18:53:00,80.7,60.9,29.96,East,96,0.0,1.0,51,0.00,,,0.00,Wunderground v.1.15,2013-06-14 23:53:00,
2013-06-14 18:59:00,80.6,61.9,29.96,SE,124,0.0,1.0,53,0.00,,,0.00,Wunderground v.1.15,2013-06-14 23:59:00,
2013-06-14 19:05:00,80.3,61.6,29.95,ESE,119,0.0,3.0,53,0.00,,,0.00,Wunderground v.1.15,2013-06-15 00:05:00,
2013-06-14 19:10:00,79.0,60.9,29.94,East,99,1.0,3.0,54,0.00,,,0.00,Wunderground v.1.15,2013-06-15 00:10:00,
2013-06-14 19:15:00,78.1,60.6,29.94,ESE,109,1.0,5.0,55,0.00,,,0.00,Wunderground v.1.15,2013-06-15 00:15:00,
2013-06-14 19:20:00,77.7,60.8,29.93,NE,54,2.0,4.0,56,0.00,,,0.00,Wunderground v.1.15,2013-06-15 00:20:00,
2013-06-14 19:26:00,77.8,60.3,29.93,NE,56,3.0,4.0,55,0.00,,,0.00,Wunderground v.1.15,2013-06-15 00:26:00,
2013-06-14 19:32:00,78.4,60.4,29.95,NE,39,2.0,3.0,54,0.00,,,0.00,Wunderground v.1.15,2013-06-15 00:32:00,
2013-06-14 19:37:00,78.7,61.2,29.96,ESE,108,0.0,3.0,55,0.00,,,0.00,Wunderground v.1.15,2013-06-15 00:37:00,
2013-06-14 19:42:00,78.4,61.9,29.97,SE,127,0.0,0.0,57,0.00,,,0.00,Wunderground v.1.15,2013-06-15 00:42:00,
2013-06-14 19:48:00,77.1,62.1,29.97,SE,128,0.0,1.0,60,0.00,,,0.00,Wunderground v.1.15,2013-06-15 00:48:00,
2013-06-14 19:53:00,76.0,61.6,29.98,SE,128,0.0,0.0,61,0.00,,,0.00,Wunderground v.1.15,2013-06-15 00:53:00,
2013-06-14 19:58:00,75.0,61.1,29.97,SE,128,0.0,0.0,62,0.00,,,0.00,Wunderground v.1.15,2013-06-15 00:58:00,
2013-06-14 20:04:00,73.9,60.5,29.98,SE,128,0.0,0.0,63,0.00,,,0.00,Wunderground v.1.15,2013-06-15 01:04:00,
2013-06-14 20:09:00,73.3,60.4,29.98,SE,128,0.0,0.0,64,0.00,,,0.00,Wunderground v.1.15,2013-06-15 01:09:00,
2013-06-14 20:14:00,72.7,61.9,29.98,SE,128,0.0,0.0,69,0.00,,,0.00,Wunderground v.1.15,2013-06-15 01:14:00,
2013-06-14 20:19:00,72.0,61.7,29.98,SE,128,0.0,0.0,70,0.00,,,0.00,Wunderground v.1.15,2013-06-15 01:19:00,
2013-06-14 20:25:00,71.5,64.3,29.98,West,272,0.0,1.0,78,0.00,,,0.00,Wunderground v.1.15,2013-06-15 01:25:00,
2013-06-14 20:30:00,70.5,62.9,29.98,West,274,0.0,0.0,77,0.00,,,0.00,Wunderground v.1.15,2013-06-15 01:30:00,
2013-06-14 20:35:00,70.0,62.1,29.98,West,274,0.0,0.0,76,0.00,,,0.00,Wunderground v.1.15,2013-06-15 01:35:00,
2013-06-14 20:40:00,69.7,63.3,29.99,West,276,0.0,0.0,80,0.00,,,0.00,Wunderground v.1.15,2013-06-15 01:40:00,
2013-06-14 20:46:00,69.4,63.3,29.99,West,276,0.0,0.0,81,0.00,,,0.00,Wunderground v.1.15,2013-06-15 01:46:00,
2013-06-14 20:51:00,69.0,61.9,29.99,West,276,0.0,0.0,78,0.00,,,0.00,Wunderground v.1.15,2013-06-15 01:51:00,
2013-06-14 20:56:00,68.6,60.7,29.99,West,276,0.0,0.0,76,0.00,,,0.00,Wunderground v.1.15,2013-06-15 01:56:00,
2013-06-14 21:02:00,68.4,60.5,29.99,West,276,0.0,0.0,76,0.00,,,0.00,Wunderground v.1.15,2013-06-15 02:02:00,
2013-06-14 21:07:00,68.5,62.4,29.99,West,274,0.0,0.0,81,0.00,,,0.00,Wunderground v.1.15,2013-06-15 02:07:00,
2013-06-14 21:12:00,68.1,60.6,29.99,West,274,0.0,0.0,77,0.00,,,0.00,Wunderground v.1.15,2013-06-15 02:12:00,
2013-06-14 21:17:00,67.9,60.4,29.99,West,274,0.0,0.0,77,0.00,,,0.00,Wunderground v.1.15,2013-06-15 02:17:00,
2013-06-14 21:22:00,67.7,59.9,29.99,West,274,0.0,0.0,76,0.00,,,0.00,Wunderground v.1.15,2013-06-15 02:22:00,
2013-06-14 21:28:00,67.5,60.0,29.99,West,274,0.0,0.0,77,0.00,,,0.00,Wunderground v.1.15,2013-06-15 02:28:00,
2013-06-14 21:33:00,67.3,59.8,29.99,West,274,0.0,0.0,77,0.00,,,0.00,Wunderground v.1.15,2013-06-15 02:33:00,
2013-06-14 21:38:00,67.0,59.5,30.00,West,274,0.0,0.0,77,0.00,,,0.00,Wunderground v.1.15,2013-06-15 02:38:00,
2013-06-14 21:43:00,66.7,59.6,30.00,West,274,0.0,0.0,78,0.00,,,0.00,Wunderground v.1.15,2013-06-15 02:43:00,
2013-06-14 21:49:00,66.8,60.4,30.00,West,274,0.0,0.0,80,0.00,,,0.00,Wunderground v.1.15,2013-06-15 02:49:00,
2013-06-14 21:54:00,66.9,60.9,30.00,SE,134,0.0,0.0,81,0.00,,,0.00,Wunderground v.1.15,2013-06-15 02:54:00,
2013-06-14 21:59:00,66.9,61.2,30.00,SE,134,0.0,0.0,82,0.00,,,0.00,Wunderground v.1.15,2013-06-15 02:59:00,
2013-06-14 22:05:00,66.8,61.1,30.00,SE,134,0.0,0.0,82,0.00,,,0.00,Wunderground v.1.15,2013-06-15 03:05:00,
2013-06-14 22:11:00,66.8,62.5,30.00,SE,134,0.0,0.0,86,0.00,,,0.00,Wunderground v.1.15,2013-06-15 03:11:00,
2013-06-14 22:16:00,66.5,61.8,30.00,SE,134,0.0,0.0,85,0.00,,,0.00,Wunderground v.1.15,2013-06-15 03:16:00,
2013-06-14 22:21:00,66.1,61.1,30.00,SE,134,0.0,0.0,84,0.00,,,0.00,Wunderground v.1.15,2013-06-15 03:21:00,
2013-06-14 22:27:00,65.8,60.8,30.00,SE,134,0.0,0.0,84,0.00,,,0.00,Wunderground v.1.15,2013-06-15 03:27:00,
2013-06-14 22:32:00,65.6,61.0,30.01,SE,134,0.0,0.0,85,0.00,,,0.00,Wunderground v.1.15,2013-06-15 03:32:00,
2013-06-14 22:37:00,65.5,60.5,30.01,SE,134,0.0,0.0,84,0.00,,,0.00,Wunderground v.1.15,2013-06-15 03:37:00,
2013-06-14 22:43:00,65.6,62.3,30.02,SSW,207,0.0,0.0,89,0.00,,,0.00,Wunderground v.1.15,2013-06-15 03:43:00,
2013-06-14 22:48:00,65.7,62.7,30.02,WSW,239,0.0,0.0,90,0.00,,,0.00,Wunderground v.1.15,2013-06-15 03:48:00,
2013-06-14 22:53:00,65.4,62.4,30.02,WSW,239,0.0,0.0,90,0.00,,,0.00,Wunderground v.1.15,2013-06-15 03:53:00,
2013-06-14 22:58:00,65.0,61.7,30.02,WSW,238,0.0,0.0,89,0.00,,,0.00,Wunderground v.1.15,2013-06-15 03:58:00,
2013-06-14 23:01:00,65.0,62.0,30.01,East,79,0.0,0.0,90,0.00,,,0.00,Wunderground v.1.15,2013-06-15 04:01:00,
2013-06-14 23:02:00,65.0,62.0,30.01,East,82,0.0,0.0,90,0.00,,,0.00,Wunderground v.1.15,2013-06-15 04:02:00,
2013-06-14 23:05:00,65.1,62.1,30.01,ESE,117,0.0,0.0,90,0.00,,,0.00,Wunderground v.1.15,2013-06-15 04:05:00,
2013-06-14 23:07:00,65.0,61.7,30.01,ESE,117,0.0,0.0,89,0.00,,,0.00,Wunderground v.1.15,2013-06-15 04:07:00,
2013-06-14 23:12:00,64.9,61.6,30.02,ESE,117,0.0,0.0,89,0.00,,,0.00,Wunderground v.1.15,2013-06-15 04:12:00,
2013-06-14 23:13:00,64.9,61.9,30.02,ESE,117,0.0,0.0,90,0.00,,,0.00,Wunderground v.1.15,2013-06-15 04:13:00,
2013-06-14 23:18:00,64.7,61.7,30.02,ESE,117,0.0,0.0,90,0.00,,,0.00,Wunderground v.1.15,2013-06-15 04:18:00,
2013-06-14 23:24:00,64.5,61.8,30.02,ESE,117,0.0,0.0,91,0.00,,,0.00,Wunderground v.1.15,2013-06-15 04:24:00,
2013-06-14 23:29:00,64.3,61.6,30.02,ESE,117,0.0,0.0,91,0.00,,,0.00,Wunderground v.1.15,2013-06-15 04:29:00,
2013-06-14 23:34:00,64.3,61.6,30.02,ESE,117,0.0,0.0,91,0.00,,,0.00,Wunderground v.1.15,2013-06-15 04:34:00,
2013-06-14 23:40:00,64.2,61.8,30.02,ESE,117,0.0,0.0,92,0.00,,,0.00,Wunderground v.1.15,2013-06-15 04:40:00,
2013-06-14 23:45:00,64.2,61.8,30.02,ESE,117,0.0,0.0,92,0.00,,,0.00,Wunderground v.1.15,2013-06-15 04:45:00,
2013-06-14 23:50:00,64.1,61.7,30.02,ESE,117,0.0,0.0,92,0.00,,,0.00,Wunderground v.1.15,2013-06-15 04:50:00,
2013-06-14 23:55:00,64.0,61.9,30.01,ESE,117,0.0,0.0,93,0.00,,,0.00,Wunderground v.1.15,2013-06-15 04:55:00,